Time;durP1;ratioP1;P1;durP2;ratioP2;P2;SDS_P1;SDS_P2;PMS_P1;PMS_P2;Temp;Humidity;BMP_temperature;BMP_pressure;BME280_temperature;BME280_humidity;BME280_pressure;Samples;Min_cycle;Max_cycle;Signal;HPM_P1;HPM_P2
2022/08/31 00:04:50;;;;;;;1.45;0.50;;;;;;;;;;6247521;22;20026;-84
2022/08/31 00:07:34;;;;;;;1.05;0.40;;;;;;;;;;6277952;22;20097;-83
2022/08/31 00:10:00;;;;;;;;;;;;;;;;;;6254092;22;20030;-84
2022/08/31 00:12:26;;;;;;;1.38;0.40;;;;;;;;;;6286231;22;19914;-84
2022/08/31 00:14:52;;;;;;;1.27;0.45;;;;;;;;;;6257033;22;20068;-85
2022/08/31 00:21:06;;;;;;;2.63;0.35;;;;;;;;;;6271218;22;20019;-83
2022/08/31 00:23:32;;;;;;;0.90;0.47;;;;;;;;;;6244388;22;20020;-84
2022/08/31 00:29:28;;;;;;;2.10;0.52;;;;;;;;;;6271637;22;20074;-84
2022/08/31 00:31:54;;;;;;;2.60;0.43;;;;;;;;;;6243016;22;20031;-85
2022/08/31 00:34:21;;;;;;;0.75;0.52;;;;;;;;;;6217247;22;20016;-83
2022/08/31 00:36:47;;;;;;;3.33;0.40;;;;;;;;;;6243909;22;20034;-84
2022/08/31 00:39:23;;;;;;;2.67;0.73;;;;;;;;;;6269193;22;20027;-84
2022/08/31 00:41:49;;;;;;;4.90;0.68;;;;;;;;;;6270719;22;20865;-83
2022/08/31 00:44:15;;;;;;;5.45;0.40;;;;;;;;;;6241837;22;20020;-83
2022/08/31 00:46:42;;;;;;;3.10;0.50;;;;;;;;;;6243444;22;20047;-83
2022/08/31 00:49:11;;;;;;;2.65;0.60;;;;;;;;;;6269282;22;20344;-84
2022/08/31 00:51:40;;;;;;;0.57;0.45;;;;;;;;;;6269706;22;20103;-83
2022/08/31 00:54:07;;;;;;;0.85;0.40;;;;;;;;;;6243449;22;20024;-83
2022/08/31 00:56:49;;;;;;;0.50;0.50;;;;;;;;;;6269348;22;20019;-83
2022/08/31 00:59:15;;;;;;;1.23;0.50;;;;;;;;;;6271148;22;20030;-82
2022/08/31 01:01:42;;;;;;;1.33;0.40;;;;;;;;;;6239875;22;20456;-83
2022/08/31 01:04:08;;;;;;;0.57;0.40;;;;;;;;;;6242512;22;20024;-84
2022/08/31 01:06:34;;;;;;;0.70;0.32;;;;;;;;;;6269130;22;20018;-84
2022/08/31 01:09:01;;;;;;;2.67;0.40;;;;;;;;;;6270771;22;20023;-84
2022/08/31 01:11:27;;;;;;;0.65;0.30;;;;;;;;;;6270665;22;20441;-84
2022/08/31 01:13:54;;;;;;;0.82;0.38;;;;;;;;;;6243227;22;20035;-85
2022/08/31 01:16:23;;;;;;;0.30;0.30;;;;;;;;;;6217649;22;20012;-85
2022/08/31 01:18:51;;;;;;;1.35;0.50;;;;;;;;;;6218479;22;20027;-85
2022/08/31 01:21:22;;;;;;;0.52;0.40;;;;;;;;;;6245424;22;20019;-85
2022/08/31 01:23:48;;;;;;;1.40;0.45;;;;;;;;;;6218822;22;20034;-86
2022/08/31 01:26:19;;;;;;;0.63;0.57;;;;;;;;;;6269797;22;20081;-85
2022/08/31 01:28:45;;;;;;;0.98;0.50;;;;;;;;;;6268705;22;20062;-84
2022/08/31 01:31:20;;;;;;;3.28;0.70;;;;;;;;;;6216009;22;20027;-85
2022/08/31 01:33:46;;;;;;;0.75;0.60;;;;;;;;;;6243342;22;20027;-84
2022/08/31 01:36:13;;;;;;;0.82;0.32;;;;;;;;;;6243120;22;20099;-84
2022/08/31 01:38:39;;;;;;;1.48;0.52;;;;;;;;;;6269312;22;20020;-84
2022/08/31 01:41:05;;;;;;;0.30;0.30;;;;;;;;;;6267970;22;20015;-84
2022/08/31 01:43:32;;;;;;;0.60;0.40;;;;;;;;;;6242291;22;20030;-84
2022/08/31 01:46:00;;;;;;;0.30;0.30;;;;;;;;;;6270417;22;20459;-87
2022/08/31 01:48:32;;;;;;;0.40;0.40;;;;;;;;;;6244258;22;20023;-85
2022/08/31 01:50:58;;;;;;;0.93;0.50;;;;;;;;;;6268870;22;20066;-84
2022/08/31 01:53:24;;;;;;;1.27;0.60;;;;;;;;;;6218291;22;20341;-84
2022/08/31 01:55:50;;;;;;;1.70;0.45;;;;;;;;;;6269638;22;20019;-83
2022/08/31 01:58:16;;;;;;;2.05;0.40;;;;;;;;;;6218178;22;20016;-83
2022/08/31 02:00:49;;;;;;;0.65;0.50;;;;;;;;;;6215366;22;20034;-83
2022/08/31 02:03:24;;;;;;;0.30;0.30;;;;;;;;;;6270359;22;20456;-85
2022/08/31 02:05:50;;;;;;;2.50;0.40;;;;;;;;;;6218982;22;20028;-84
2022/08/31 02:08:34;;;;;;;0.47;0.40;;;;;;;;;;6269623;22;20093;-84
2022/08/31 02:11:00;;;;;;;0.98;0.60;;;;;;;;;;6244726;22;20069;-84
2022/08/31 02:13:26;;;;;;;2.13;0.82;;;;;;;;;;6266159;22;20043;-84
2022/08/31 02:15:59;;;;;;;4.18;0.55;;;;;;;;;;6242540;22;20020;-83
2022/08/31 02:18:35;;;;;;;2.25;0.85;;;;;;;;;;6269214;22;20039;-84
2022/08/31 02:21:01;;;;;;;2.00;0.50;;;;;;;;;;6244319;22;20019;-84
2022/08/31 02:23:27;;;;;;;5.10;0.73;;;;;;;;;;6241843;22;20016;-85
2022/08/31 02:26:00;;;;;;;2.25;0.60;;;;;;;;;;6243539;22;20023;-84
2022/08/31 02:28:26;;;;;;;1.20;0.50;;;;;;;;;;6214688;22;20023;-85
2022/08/31 02:31:10;;;;;;;3.35;1.00;;;;;;;;;;6216621;22;20024;-84
2022/08/31 02:33:45;;;;;;;0.52;0.50;;;;;;;;;;6268220;22;20093;-85
2022/08/31 02:36:18;;;;;;;1.42;0.60;;;;;;;;;;6270330;22;20352;-85
2022/08/31 02:38:59;;;;;;;3.60;0.60;;;;;;;;;;6243299;22;20069;-83
2022/08/31 02:41:41;;;;;;;2.45;0.60;;;;;;;;;;6215971;22;20082;-85
2022/08/31 02:44:35;;;;;;;0.90;0.50;;;;;;;;;;6270123;22;20015;-85
2022/08/31 02:47:01;;;;;;;1.33;0.60;;;;;;;;;;6246478;22;20102;-85
2022/08/31 02:49:39;;;;;;;0.85;0.70;;;;;;;;;;6276004;22;20051;-85
2022/08/31 02:52:05;;;;;;;0.50;0.50;;;;;;;;;;6247004;22;20460;-84
2022/08/31 02:54:31;;;;;;;1.27;0.60;;;;;;;;;;6198114;22;20065;-85
2022/08/31 02:57:04;;;;;;;1.27;0.50;;;;;;;;;;6246634;22;20022;-84
2022/08/31 02:59:30;;;;;;;1.27;0.60;;;;;;;;;;6274599;22;20507;-85
2022/08/31 03:01:56;;;;;;;1.67;0.60;;;;;;;;;;6271654;22;20094;-85
2022/08/31 03:04:22;;;;;;;3.08;0.50;;;;;;;;;;6220869;22;20051;-85
2022/08/31 03:06:48;;;;;;;2.10;0.60;;;;;;;;;;6246745;22;20019;-86
2022/08/31 03:09:15;;;;;;;4.70;0.68;;;;;;;;;;6247686;22;20402;-85
2022/08/31 03:11:53;;;;;;;1.63;0.60;;;;;;;;;;6272683;22;20074;-82
2022/08/31 03:14:19;;;;;;;0.40;0.40;;;;;;;;;;6272568;22;20058;-83
2022/08/31 03:16:52;;;;;;;2.28;0.50;;;;;;;;;;6274153;22;20343;-85
2022/08/31 03:19:21;;;;;;;3.03;0.60;;;;;;;;;;6274167;22;20020;-83
2022/08/31 03:22:03;;;;;;;1.63;0.50;;;;;;;;;;6279178;22;20024;-84
2022/08/31 03:24:30;;;;;;;1.02;0.60;;;;;;;;;;6254477;22;20019;-84
2022/08/31 03:26:56;;;;;;;5.50;0.80;;;;;;;;;;6284242;22;20039;-83
2022/08/31 03:29:22;;;;;;;1.20;0.68;;;;;;;;;;6285063;22;20392;-83
2022/08/31 03:31:48;;;;;;;2.90;0.60;;;;;;;;;;6248270;22;20043;-83
2022/08/31 03:34:14;;;;;;;1.95;0.80;;;;;;;;;;6270958;22;20023;-83
2022/08/31 03:36:40;;;;;;;0.52;0.50;;;;;;;;;;6245732;22;20034;-84
2022/08/31 03:39:25;;;;;;;0.77;0.55;;;;;;;;;;6221040;22;20020;-84
2022/08/31 03:41:51;;;;;;;1.23;0.65;;;;;;;;;;6220807;22;20016;-83
2022/08/31 03:44:20;;;;;;;8.98;1.35;;;;;;;;;;6257279;22;20416;-85
2022/08/31 03:46:49;;;;;;;1.45;0.65;;;;;;;;;;6245070;22;20027;-82
2022/08/31 03:49:24;;;;;;;2.20;0.70;;;;;;;;;;6194841;22;20072;-85
2022/08/31 03:51:51;;;;;;;1.40;0.80;;;;;;;;;;6269472;22;20452;-85
2022/08/31 03:54:17;;;;;;;2.35;0.80;;;;;;;;;;6243832;22;20015;-84
2022/08/31 03:56:49;;;;;;;1.38;0.93;;;;;;;;;;6196360;22;20391;-88
2022/08/31 03:59:15;;;;;;;0.88;0.77;;;;;;;;;;6223306;22;20106;-88
2022/08/31 04:01:42;;;;;;;2.35;0.80;;;;;;;;;;6247115;22;20122;-89
2022/08/31 04:04:08;;;;;;;1.58;0.80;;;;;;;;;;6224190;22;20028;-88
2022/08/31 04:06:34;;;;;;;0.60;0.60;;;;;;;;;;6276030;22;20024;-88
2022/08/31 04:09:01;;;;;;;1.42;0.70;;;;;;;;;;6219327;22;20022;-88
2022/08/31 04:11:27;;;;;;;1.23;0.70;;;;;;;;;;6194547;23;20020;-89
2022/08/31 04:14:00;;;;;;;2.30;0.88;;;;;;;;;;6194188;23;20103;-89
2022/08/31 04:16:26;;;;;;;3.05;0.75;;;;;;;;;;6193315;23;20052;-88
2022/08/31 04:18:53;;;;;;;2.28;0.90;;;;;;;;;;6247023;23;20020;-87
2022/08/31 04:21:20;;;;;;;2.15;0.95;;;;;;;;;;6191250;23;20086;-88
2022/08/31 04:23:50;;;;;;;1.73;0.80;;;;;;;;;;6219989;23;20039;-88
2022/08/31 04:26:16;;;;;;;1.63;1.17;;;;;;;;;;6244751;23;20054;-88
2022/08/31 04:28:42;;;;;;;1.60;0.95;;;;;;;;;;6218868;23;20024;-87
2022/08/31 04:31:08;;;;;;;2.97;1.70;;;;;;;;;;6219515;23;20026;-87
2022/08/31 04:33:38;;;;;;;4.13;1.08;;;;;;;;;;6193580;23;20752;-87
2022/08/31 04:36:06;;;;;;;3.20;1.10;;;;;;;;;;6248315;23;20055;-88
2022/08/31 04:38:32;;;;;;;2.03;0.80;;;;;;;;;;6194386;23;20082;-88
2022/08/31 04:40:58;;;;;;;1.00;0.82;;;;;;;;;;6249932;23;20075;-88
2022/08/31 04:43:24;;;;;;;1.52;0.93;;;;;;;;;;6247842;23;20024;-88
2022/08/31 04:45:50;;;;;;;1.45;1.00;;;;;;;;;;6196936;23;20016;-88
2022/08/31 04:48:17;;;;;;;2.67;1.00;;;;;;;;;;6195695;23;20024;-89
2022/08/31 04:50:49;;;;;;;3.08;1.00;;;;;;;;;;6198010;23;20035;-89
2022/08/31 04:53:15;;;;;;;1.33;0.80;;;;;;;;;;6193949;23;20099;-88
2022/08/31 04:55:44;;;;;;;2.40;1.10;;;;;;;;;;6220527;23;20020;-88
2022/08/31 04:58:12;;;;;;;2.00;0.88;;;;;;;;;;6194331;23;20039;-88
2022/08/31 05:00:44;;;;;;;1.23;0.80;;;;;;;;;;6221147;23;20020;-88
2022/08/31 05:03:10;;;;;;;1.05;0.82;;;;;;;;;;6222026;23;20103;-88
2022/08/31 05:05:39;;;;;;;1.02;0.82;;;;;;;;;;6194095;23;20031;-88
2022/08/31 05:08:06;;;;;;;0.73;0.70;;;;;;;;;;6200201;23;20020;-88
2022/08/31 05:10:37;;;;;;;5.20;0.90;;;;;;;;;;6197826;23;20428;-88
2022/08/31 05:13:06;;;;;;;2.03;1.00;;;;;;;;;;6225749;23;20020;-89
2022/08/31 05:15:32;;;;;;;0.98;0.88;;;;;;;;;;6201571;23;20020;-88
2022/08/31 05:17:59;;;;;;;3.08;1.13;;;;;;;;;;6200184;23;20499;-89
2022/08/31 05:20:25;;;;;;;1.95;0.93;;;;;;;;;;6222329;23;20020;-90
2022/08/31 05:23:19;;;;;;;1.00;0.90;;;;;;;;;;6195556;23;20051;-89
2022/08/31 05:25:46;;;;;;;1.27;0.98;;;;;;;;;;6196895;23;20074;-89
2022/08/31 05:28:12;;;;;;;4.50;1.00;;;;;;;;;;6194921;23;20334;-89
2022/08/31 05:30:42;;;;;;;0.90;0.80;;;;;;;;;;6197782;23;20013;-89
2022/08/31 05:33:09;;;;;;;2.90;1.00;;;;;;;;;;6194404;23;20082;-88
2022/08/31 05:35:35;;;;;;;2.67;0.80;;;;;;;;;;6173297;23;20017;-89
2022/08/31 05:38:01;;;;;;;3.28;1.73;;;;;;;;;;6196172;23;20027;-88
2022/08/31 05:40:27;;;;;;;1.92;0.90;;;;;;;;;;6222099;23;20020;-89
2022/08/31 05:42:55;;;;;;;2.38;0.85;;;;;;;;;;6250721;23;20070;-89
2022/08/31 05:45:21;;;;;;;3.63;0.90;;;;;;;;;;6222508;23;20131;-89
2022/08/31 05:47:47;;;;;;;1.13;1.02;;;;;;;;;;6248050;23;20024;-90
2022/08/31 05:50:13;;;;;;;2.53;0.93;;;;;;;;;;6197371;23;20366;-88
2022/08/31 05:52:39;;;;;;;2.50;1.10;;;;;;;;;;6248601;23;20151;-89
2022/08/31 05:55:05;;;;;;;1.50;0.95;;;;;;;;;;6173219;23;20123;-89
2022/08/31 05:57:31;;;;;;;1.50;1.10;;;;;;;;;;6173636;23;20024;-87
2022/08/31 05:59:57;;;;;;;1.48;1.10;;;;;;;;;;6195450;23;20012;-88
2022/08/31 06:02:24;;;;;;;2.25;1.08;;;;;;;;;;6252649;23;20023;-88
2022/08/31 06:04:56;;;;;;;2.70;0.90;;;;;;;;;;6201857;22;20016;-89
2022/08/31 06:07:25;;;;;;;1.15;0.77;;;;;;;;;;6227147;23;20020;-91
2022/08/31 06:10:16;;;;;;;2.05;1.10;;;;;;;;;;6227774;23;20082;-89
2022/08/31 06:12:42;;;;;;;1.63;1.05;;;;;;;;;;6250246;23;20111;-88
2022/08/31 06:15:12;;;;;;;1.20;0.95;;;;;;;;;;6251389;23;20457;-88
2022/08/31 06:17:39;;;;;;;2.40;0.90;;;;;;;;;;6222418;23;20016;-88
2022/08/31 06:20:05;;;;;;;1.95;1.10;;;;;;;;;;6223372;23;20020;-88
2022/08/31 06:22:50;;;;;;;1.63;1.00;;;;;;;;;;6247063;23;20059;-87
2022/08/31 06:25:18;;;;;;;3.53;1.90;;;;;;;;;;6218030;22;20505;-88
2022/08/31 06:27:49;;;;;;;2.00;1.02;;;;;;;;;;6193123;23;20432;-88
2022/08/31 06:30:18;;;;;;;1.63;0.90;;;;;;;;;;6221477;23;20024;-88
2022/08/31 06:32:47;;;;;;;1.95;1.27;;;;;;;;;;6219747;23;20021;-87
2022/08/31 06:35:39;;;;;;;2.20;1.10;;;;;;;;;;6197923;23;20031;-88
2022/08/31 06:38:05;;;;;;;3.70;1.10;;;;;;;;;;6199712;23;20009;-88
2022/08/31 06:40:31;;;;;;;3.60;0.90;;;;;;;;;;6202947;23;20021;-87
2022/08/31 06:42:57;;;;;;;7.05;1.08;;;;;;;;;;6231234;23;20021;-88
2022/08/31 06:45:23;;;;;;;4.00;1.00;;;;;;;;;;6199116;23;20034;-87
2022/08/31 06:47:49;;;;;;;3.75;1.27;;;;;;;;;;6196352;23;20394;-87
2022/08/31 06:50:16;;;;;;;2.05;1.20;;;;;;;;;;6220738;23;20070;-88
2022/08/31 06:52:42;;;;;;;3.05;1.20;;;;;;;;;;6220086;23;20024;-87
2022/08/31 06:55:19;;;;;;;2.53;1.38;;;;;;;;;;6192122;23;20056;-88
2022/08/31 07:00:49;;;;;;;2.20;1.10;;;;;;;;;;6216877;23;20021;-87
2022/08/31 07:03:31;;;;;;;5.55;1.50;;;;;;;;;;6196212;23;20019;-87
2022/08/31 07:05:58;;;;;;;2.28;1.30;;;;;;;;;;6219030;23;20017;-87
2022/08/31 07:08:24;;;;;;;1.52;1.30;;;;;;;;;;6192387;23;20091;-87
2022/08/31 07:10:50;;;;;;;3.42;1.45;;;;;;;;;;6217990;23;20013;-87
2022/08/31 07:13:16;;;;;;;1.90;1.40;;;;;;;;;;6216658;23;20079;-88
2022/08/31 07:15:43;;;;;;;1.30;1.13;;;;;;;;;;6193079;23;20024;-86
2022/08/31 07:18:31;;;;;;;5.78;1.75;;;;;;;;;;6191151;23;20016;-87
2022/08/31 07:21:06;;;;;;;1.13;0.98;;;;;;;;;;6194037;23;20020;-86
2022/08/31 07:23:32;;;;;;;2.03;0.70;;;;;;;;;;6191898;23;20021;-86
2022/08/31 07:26:02;;;;;;;1.90;0.88;;;;;;;;;;6217304;23;20421;-87
2022/08/31 07:28:28;;;;;;;2.40;0.95;;;;;;;;;;6191395;23;20020;-87
2022/08/31 07:30:55;;;;;;;4.03;0.60;;;;;;;;;;6217816;23;20024;-88
2022/08/31 07:33:21;;;;;;;2.78;1.00;;;;;;;;;;6219447;23;20075;-87
2022/08/31 07:35:47;;;;;;;2.03;0.60;;;;;;;;;;6194492;23;20020;-87
2022/08/31 07:43:42;;;;;;;1.58;0.75;;;;;;;;;;6223625;23;20028;-86
2022/08/31 07:46:08;;;;;;;3.22;0.70;;;;;;;;;;6223382;23;20016;-88
2022/08/31 07:48:51;;;;;;;1.08;0.80;;;;;;;;;;6215546;23;20020;-86
2022/08/31 07:51:27;;;;;;;1.90;0.88;;;;;;;;;;6191979;23;20523;-86
2022/08/31 07:53:54;;;;;;;4.90;0.85;;;;;;;;;;6214179;23;20042;-86
2022/08/31 07:56:22;;;;;;;2.63;0.70;;;;;;;;;;6190152;23;20794;-86
2022/08/31 07:58:48;;;;;;;3.53;0.60;;;;;;;;;;6216871;23;20017;-87
2022/08/31 08:01:15;;;;;;;1.90;0.80;;;;;;;;;;6189970;23;20017;-88
2022/08/31 08:03:43;;;;;;;2.67;0.68;;;;;;;;;;6190164;23;20075;-86
2022/08/31 08:06:14;;;;;;;1.05;0.60;;;;;;;;;;6189459;23;20043;-87
2022/08/31 08:08:43;;;;;;;0.98;0.60;;;;;;;;;;6215479;23;20048;-88
2022/08/31 08:11:22;;;;;;;1.48;0.70;;;;;;;;;;6213918;23;20543;-86
2022/08/31 08:13:48;;;;;;;0.52;0.50;;;;;;;;;;6190059;23;20020;-87
2022/08/31 08:16:15;;;;;;;1.35;0.60;;;;;;;;;;6188467;23;20496;-85
2022/08/31 08:18:41;;;;;;;4.65;0.60;;;;;;;;;;6216595;23;20016;-86
2022/08/31 08:21:13;;;;;;;1.85;0.85;;;;;;;;;;6187246;23;20021;-87
2022/08/31 08:23:39;;;;;;;1.42;0.70;;;;;;;;;;6188445;23;20094;-86
2022/08/31 08:26:07;;;;;;;0.80;0.50;;;;;;;;;;6233853;23;20016;-86
2022/08/31 08:28:34;;;;;;;2.90;0.60;;;;;;;;;;6242350;23;20123;-87
2022/08/31 08:31:00;;;;;;;1.77;0.47;;;;;;;;;;6218286;23;20023;-87
2022/08/31 08:33:30;;;;;;;0.50;0.50;;;;;;;;;;6244501;23;20016;-87
2022/08/31 08:35:58;;;;;;;1.75;0.43;;;;;;;;;;6169229;23;20024;-87
2022/08/31 08:38:52;;;;;;;0.82;0.50;;;;;;;;;;6243884;23;20119;-86
2022/08/31 08:41:18;;;;;;;0.85;0.68;;;;;;;;;;6244018;23;20020;-86
2022/08/31 08:43:47;;;;;;;2.42;0.60;;;;;;;;;;6192681;23;20020;-88
2022/08/31 08:46:13;;;;;;;0.57;0.57;;;;;;;;;;6217597;23;20028;-87
2022/08/31 08:48:40;;;;;;;1.95;0.50;;;;;;;;;;6218244;23;20035;-88
2022/08/31 08:51:17;;;;;;;1.27;0.60;;;;;;;;;;6191835;23;20047;-87
2022/08/31 08:53:45;;;;;;;0.70;0.50;;;;;;;;;;6244890;23;20024;-88
2022/08/31 08:56:12;;;;;;;1.30;0.43;;;;;;;;;;6190996;23;20042;-88
2022/08/31 08:58:42;;;;;;;2.53;0.60;;;;;;;;;;6191301;23;20090;-86
2022/08/31 09:01:12;;;;;;;0.65;0.50;;;;;;;;;;6189600;23;20395;-86
2022/08/31 09:04:00;;;;;;;3.15;0.63;;;;;;;;;;6216073;23;20020;-88
2022/08/31 09:09:47;;;;;;;5.47;0.63;;;;;;;;;;6242077;22;20031;-87
2022/08/31 09:12:24;;;;;;;0.70;0.40;;;;;;;;;;6244526;23;20023;-86
2022/08/31 09:14:55;;;;;;;2.33;0.50;;;;;;;;;;6216089;23;20067;-86
2022/08/31 09:17:24;;;;;;;0.80;0.60;;;;;;;;;;6242642;23;20016;-85
2022/08/31 09:19:58;;;;;;;2.33;0.70;;;;;;;;;;6191763;23;20024;-86
2022/08/31 09:22:24;;;;;;;2.95;0.43;;;;;;;;;;6214232;23;20500;-86
2022/08/31 09:25:02;;;;;;;2.22;0.70;;;;;;;;;;6166338;23;20310;-87
2022/08/31 09:28:15;;;;;;;1.10;0.52;;;;;;;;;;6152633;23;20021;-87
2022/08/31 09:30:49;;;;;;;1.05;0.55;;;;;;;;;;6183148;23;20021;-88
2022/08/31 09:33:55;;;;;;;1.25;0.60;;;;;;;;;;6161412;23;20044;-87
2022/08/31 09:36:22;;;;;;;0.50;0.50;;;;;;;;;;6180761;23;20021;-86
2022/08/31 09:38:49;;;;;;;0.60;0.60;;;;;;;;;;6158247;23;20013;-87
2022/08/31 09:41:32;;;;;;;0.68;0.60;;;;;;;;;;6181676;23;20017;-87
2022/08/31 09:44:17;;;;;;;4.10;0.80;;;;;;;;;;6159530;23;20096;-86
2022/08/31 09:46:47;;;;;;;1.95;0.40;;;;;;;;;;6192340;23;20052;-88
2022/08/31 09:49:19;;;;;;;3.05;0.70;;;;;;;;;;6167784;23;20052;-86
2022/08/31 09:51:47;;;;;;;1.60;0.57;;;;;;;;;;6191668;23;20021;-87
2022/08/31 09:57:06;;;;;;;0.82;0.60;;;;;;;;;;6190448;23;20603;-87
2022/08/31 09:59:38;;;;;;;0.73;0.73;;;;;;;;;;6163510;23;20021;-87
2022/08/31 10:02:25;;;;;;;2.80;0.50;;;;;;;;;;6190649;23;20086;-87
2022/08/31 10:04:53;;;;;;;1.80;0.50;;;;;;;;;;6189388;23;20095;-87
2022/08/31 10:07:28;;;;;;;6.05;0.60;;;;;;;;;;6185476;23;20096;-87
2022/08/31 10:09:58;;;;;;;0.85;0.50;;;;;;;;;;6216131;23;20055;-87
2022/08/31 10:12:48;;;;;;;1.77;0.50;;;;;;;;;;6162765;23;20505;-87
2022/08/31 10:15:20;;;;;;;0.50;0.43;;;;;;;;;;6163827;23;20017;-86
2022/08/31 10:18:01;;;;;;;5.40;0.70;;;;;;;;;;6187802;23;20051;-87
2022/08/31 10:20:30;;;;;;;1.38;0.60;;;;;;;;;;6161000;23;20013;-86
2022/08/31 10:23:21;;;;;;;0.70;0.50;;;;;;;;;;6215373;23;20087;-88
2022/08/31 10:25:53;;;;;;;4.22;0.50;;;;;;;;;;6161360;23;20072;-88
2022/08/31 10:28:19;;;;;;;3.28;0.70;;;;;;;;;;6189608;23;20016;-87
2022/08/31 10:31:06;;;;;;;2.75;0.50;;;;;;;;;;6188004;23;20028;-87
2022/08/31 10:36:38;;;;;;;0.40;0.40;;;;;;;;;;6158416;23;20032;-88
2022/08/31 10:39:23;;;;;;;1.15;0.40;;;;;;;;;;6180222;23;20064;-86
2022/08/31 10:41:50;;;;;;;1.45;0.57;;;;;;;;;;6158218;23;20108;-87
2022/08/31 10:44:25;;;;;;;3.33;0.77;;;;;;;;;;6156529;23;20081;-89
2022/08/31 10:46:57;;;;;;;0.85;0.50;;;;;;;;;;6134298;23;20094;-87
2022/08/31 10:49:23;;;;;;;5.22;0.60;;;;;;;;;;6131200;23;20029;-87
2022/08/31 10:51:58;;;;;;;1.45;0.52;;;;;;;;;;6133718;23;20024;-88
2022/08/31 10:54:27;;;;;;;0.68;0.55;;;;;;;;;;6157839;23;20021;-87
2022/08/31 10:57:11;;;;;;;3.20;0.60;;;;;;;;;;6158110;23;20021;-87
2022/08/31 10:59:45;;;;;;;1.50;0.60;;;;;;;;;;6158741;23;20064;-88
2022/08/31 11:02:17;;;;;;;0.77;0.60;;;;;;;;;;6192527;22;20020;-87
2022/08/31 11:04:50;;;;;;;1.73;0.60;;;;;;;;;;6224593;22;20202;-86
2022/08/31 11:07:16;;;;;;;0.77;0.50;;;;;;;;;;6247553;23;20023;-85
2022/08/31 11:09:42;;;;;;;1.13;0.60;;;;;;;;;;6249701;22;20019;-85
2022/08/31 11:12:25;;;;;;;0.50;0.40;;;;;;;;;;6226637;22;20020;-86
2022/08/31 11:15:10;;;;;;;0.60;0.47;;;;;;;;;;6250376;22;20098;-85
2022/08/31 11:18:15;;;;;;;1.30;0.43;;;;;;;;;;6224597;22;20023;-85
2022/08/31 11:20:43;;;;;;;2.38;0.52;;;;;;;;;;6133763;23;20021;-92
2022/08/31 11:23:41;;;;;;;0.50;0.50;;;;;;;;;;6162374;23;20022;-91
2022/08/31 11:29:37;;;;;;;0.60;0.50;;;;;;;;;;6275176;22;20087;-92
2022/08/31 11:32:29;;;;;;;2.30;0.50;;;24.60;99.90;;;;;;6259211;22;20024;-93
2022/08/31 11:38:47;;;;;;;0.68;0.50;;;;;;;;;;6287592;22;20026;-92
2022/08/31 12:29:26;;;;;;;0.57;0.50;;;;;;;;;;6289953;22;20054;-92
2022/08/31 12:41:54;;;;;;;1.67;0.50;;;;;;;;;;6298365;22;20110;-92
2022/08/31 12:47:21;;;;;;;2.42;0.60;;;;;;;;;;6222562;22;20024;-92
2022/08/31 15:44:17;;;;;;;1.83;0.57;;;;;;;;;;6309125;22;20054;-89
2022/08/31 15:50:28;;;;;;;3.78;0.90;;;;;;;;;;6313650;22;20052;-90
2022/08/31 15:52:57;;;;;;;4.28;0.90;;;;;;;;;;6231797;22;20015;-90
2022/08/31 15:55:47;;;;;;;20.65;1.23;;;25.70;99.90;;;;;;6256784;22;20049;-91
2022/08/31 15:58:13;;;;;;;3.13;1.05;;;;;;;;;;6259639;22;20030;-90
2022/08/31 16:00:40;;;;;;;11.23;1.10;;;;;;;;;;6258586;22;20050;-91
2022/08/31 16:03:32;;;;;;;8.63;1.45;;;;;;;;;;6260611;22;20023;-94
2022/08/31 16:06:01;;;;;;;81.03;8.80;;;;;;;;;;6259387;22;20384;-90
2022/08/31 16:08:34;;;;;;;4.57;0.90;;;;;;;;;;6310756;22;20019;-90
2022/08/31 16:14:00;;;;;;;6.22;0.75;;;;;;;;;;6308983;22;20030;-90
2022/08/31 16:16:27;;;;;;;4.22;1.00;;;;;;;;;;6256897;22;20019;-90
2022/08/31 16:21:32;;;;;;;72.28;7.35;;;;;;;;;;6296909;22;20046;-89
2022/08/31 16:23:59;;;;;;;6.72;1.38;;;;;;;;;;6261022;22;20107;-92
2022/08/31 16:51:51;;;;;;;3.47;0.95;;;;;;;;;;6310516;22;20096;-90
2022/08/31 16:58:30;;;;;;;3.10;0.90;;;;;;;;;;6310944;22;20076;-90
2022/08/31 17:01:02;;;;;;;2.45;0.93;;;;;;;;;;6259656;22;20019;-90
2022/08/31 17:03:35;;;;;;;3.28;0.70;;;;;;;;;;6289613;22;20050;-93
2022/08/31 17:06:01;;;;;;;5.65;0.90;;;;;;;;;;6262583;22;20011;-91
2022/08/31 17:08:30;;;;;;;2.47;0.80;;;;;;;;;;6261073;22;20022;-91
2022/08/31 17:11:25;;;;;;;2.85;0.95;;;;;;;;;;6260588;22;20510;-90
2022/08/31 17:47:36;;;;;;;3.63;0.98;;;21.80;99.90;;;;;;6250476;22;20031;-92
2022/08/31 17:50:16;;;;;;;2.20;0.93;;;;;;;;;;6200193;23;20423;-90
2022/08/31 18:02:31;;;;;;;2.67;1.13;;;;;;;;;;6281619;22;20028;-89
2022/08/31 18:05:23;;;;;;;6.97;1.23;;;;;;;;;;6230074;22;20139;-92
2022/08/31 18:07:50;;;;;;;5.72;1.25;;;;;;;;;;6227291;22;20046;-89
2022/08/31 18:46:15;;;;;;;5.38;1.02;;;;;;;;;;6337169;22;19922;-92
2022/08/31 18:49:27;;;;;;;5.82;0.90;;;;;;;;;;6273354;22;20029;-94
2022/08/31 19:34:56;;;;;;;;;;;;;;;;;;;;;
2022/08/31 19:38:08;;;;;;;7.88;1.50;;;;;;;;;;6281982;22;20456;-89
2022/08/31 19:47:33;;;;;;;3.97;1.50;;;;;;;;;;6283975;22;19929;-90
2022/08/31 19:50:17;;;;;;;4.90;1.48;;;;;;;;;;6256769;22;20039;-90
2022/08/31 20:11:04;;;;;;;4.22;1.15;;;;;;;;;;6222137;23;20024;-89
2022/08/31 20:13:57;;;;;;;14.48;2.20;;;;;;;;;;6197043;23;20078;-90
2022/08/31 20:16:58;;;;;;;6.57;1.48;;;;;;;;;;6195192;23;20034;-88
2022/08/31 20:26:01;;;;;;;7.50;1.40;;;;;;;;;;6279498;22;20030;-86
2022/08/31 20:32:06;;;;;;;7.07;1.45;;;;;;;;;;6277946;22;20023;-88
2022/08/31 20:34:54;;;;;;;8.88;1.45;;;;;;;;;;6282114;22;20015;-88
2022/08/31 20:37:34;;;;;;;7.95;1.48;;;;;;;;;;6278375;22;20023;-87
2022/08/31 20:40:15;;;;;;;12.27;1.90;;;;;;;;;;6278565;22;20027;-87
2022/08/31 20:42:41;;;;;;;7.20;1.30;;;;;;;;;;6280517;22;20016;-89
2022/08/31 20:45:20;;;;;;;6.80;1.40;;;;;;;;;;6280740;22;20080;-90
2022/08/31 20:50:47;;;;;;;4.00;1.23;;;;;;;;;;6283443;22;20023;-91
2022/08/31 20:53:47;;;;;;;4.78;1.30;;;;;;;;;;6283548;22;20119;-89
2022/08/31 20:56:30;;;;;;;6.97;1.17;;;;;;;;;;6281993;22;20082;-89
2022/08/31 20:59:11;;;;;;;8.88;1.40;;;;;;;;;;6259810;22;20451;-90
2022/08/31 21:01:58;;;;;;;4.93;1.13;;;;;;;;;;6234925;22;20020;-89
2022/08/31 21:04:57;;;;;;;5.63;1.40;;;;;;;;;;6264596;22;20023;-89
2022/08/31 21:07:38;;;;;;;4.57;1.35;;;;;;;;;;6284165;22;20087;-89
2022/08/31 21:10:23;;;;;;;6.10;1.55;;;;;;;;;;6253898;22;20411;-87
2022/08/31 21:13:37;;;;;;;8.90;1.55;;;;;;;;;;6222429;23;20099;-89
2022/08/31 21:19:28;;;;;;;12.70;1.60;;;;;;;;;;6188680;23;20068;-88
2022/08/31 21:22:13;;;;;;;5.45;1.15;;;;;;;;;;6195590;23;20028;-88
2022/08/31 21:24:58;;;;;;;8.07;2.03;;;;;;;;;;6222047;23;20016;-88
2022/08/31 21:27:51;;;;;;;6.00;1.40;;;;;;;;;;6248381;23;20066;-88
2022/08/31 21:30:17;;;;;;;13.98;1.95;;;;;;;;;;6221890;23;20024;-89
2022/08/31 21:32:54;;;;;;;;;;;;;;;;;;;;;
2022/08/31 21:35:39;;;;;;;9.20;1.77;;;;;;;;;;6248843;23;20063;-90
2022/08/31 21:41:42;;;;;;;5.10;1.35;;;;;;;;;;6278851;22;20089;-89
2022/08/31 21:46:44;;;;;;;4.88;1.58;;;;;;;;;;6274794;22;20046;-86
2022/08/31 21:49:17;;;;;;;6.07;1.60;;;;;;;;;;6276696;22;20039;-86
2022/08/31 21:51:54;;;;;;;8.07;1.37;;;;;;;;;;6254779;22;20026;-86
2022/08/31 21:54:33;;;;;;;4.00;1.20;;;;;;;;;;6252388;22;20560;-87
2022/08/31 21:57:16;;;;;;;5.32;1.35;;;;;;;;;;6281290;22;20012;-88
2022/08/31 22:02:41;;;;;;;1.55;0.90;;;;;;;;;;6261127;22;20054;-90
2022/08/31 22:05:11;;;;;;;3.08;1.35;;;;;;;;;;6279575;22;20051;-88
2022/08/31 22:07:38;;;;;;;2.75;1.15;;;;;;;;;;6281031;22;20094;-88
2022/08/31 22:10:09;;;;;;;6.38;1.98;;;;;;;;;;6257774;22;20024;-88
2022/08/31 22:12:45;;;;;;;3.70;1.50;;;;;;;;;;6255914;22;20016;-88
2022/08/31 22:15:15;;;;;;;3.70;1.48;;;;;;;;;;6229008;22;20023;-87
2022/08/31 22:20:31;;;;;;;6.43;1.10;;;;;;;;;;6273508;22;20138;-88
2022/08/31 22:45:57;;;;;;;6.78;1.88;;;;;;;;;;6218383;23;20020;-88
2022/08/31 22:48:35;;;;;;;4.30;0.90;;;;;;;;;;6172333;23;20020;-89
2022/08/31 22:51:03;;;;;;;3.90;0.90;;;;;;;;;;6247655;23;20028;-88
2022/08/31 22:53:29;;;;;;;1.20;0.68;;;;;;;;;;6223184;23;20016;-87
2022/08/31 22:56:01;;;;;;;2.67;0.98;;;;;;;;;;6169892;23;20016;-87
2022/08/31 22:58:47;;;;;;;4.35;1.00;;;;;;;;;;6222476;23;20042;-88
2022/08/31 23:01:46;;;;;;;6.97;1.80;;;;;;;;;;6219901;23;20051;-89
2022/08/31 23:04:29;;;;;;;3.50;1.20;;;;;;;;;;6248222;23;20020;-89
2022/08/31 23:07:00;;;;;;;1.48;0.80;;;;;;;;;;6246594;23;20055;-89
2022/08/31 23:09:32;;;;;;;2.63;0.90;;;;;;;;;;6250990;23;20020;-88
2022/08/31 23:12:15;;;;;;;7.18;0.90;;;;;;;;;;6219891;23;20780;-89
2022/08/31 23:15:11;;;;;;;5.55;1.00;;;;;;;;;;6248980;23;20024;-89
2022/08/31 23:18:08;;;;;;;1.10;0.85;;;;;;;;;;6220128;23;20070;-89
2022/08/31 23:23:43;;;;;;;2.40;1.10;;;16.90;99.90;;;;;;6286819;22;20356;-89
2022/08/31 23:26:11;;;;;;;1.23;0.90;;;;;;;;;;6195051;23;20024;-89
2022/08/31 23:31:35;;;;;;;3.33;0.75;;;;;;;;;;6279745;22;20031;-89
2022/08/31 23:34:17;;;;;;;1.45;0.90;;;;;;;;;;6252748;22;20035;-88
2022/08/31 23:39:42;;;;;;;1.33;0.73;;;;;;;;;;6306360;22;20027;-89
2022/08/31 23:42:10;;;;;;;2.70;0.83;;;;;;;;;;6283944;22;20041;-88
2022/08/31 23:44:42;;;;;;;3.20;0.80;;;;;;;;;;6282424;22;20030;-89
2022/08/31 23:50:22;;;;;;;2.17;1.08;;;;;;;;;;6279599;22;20028;-90
2022/08/31 23:52:52;;;;;;;1.15;0.80;;;;;;;;;;6254726;22;20023;-90
2022/08/31 23:56:13;;;;;;;2.15;0.82;;;16.90;99.90;;;;;;6253234;22;20019;-89
